EXS9KG EGCC-GCTS
Flight info
| Callsign | EXS9KG |
|---|---|
| Flight time | N/A |
| Altitude | 41000 |
| Route | ASMIM DCT NOKIN P17 BEPHE DCT OSSEP DCT OXCUD DCT ELNIF DCT ZESPE DCT KLAKI DCT ANNET DCT KORUL DCT AGADO DCT ZIFOG DCT OLBOD DCT BEXAL UN866 KONBA |
| Aircraft | A332/H-SDE3GHIJ2J3J5M1RVWXY/LB2D1 |
Departure
| Time | 2026-05-04 21:07 |
|---|---|
| Airport | Manchester Airport (EGCC) |
Arrival
| Time | N/A |
|---|---|
| Airport | Tenerife Sur Airport (GCTS) |
| Time | Latitude | Longitude | Altitude | Speed | Heading |
|---|---|---|---|---|---|
| 2026-05-04 20:32 | 53.36405 | -2.27667 | 259 ft | 0 kts | 44° |
| 2026-05-04 20:55 | 53.36397 | -2.27681 | 259 ft | 3 kts | 44° |
| 2026-05-04 20:55 | 53.36383 | -2.27705 | 259 ft | 3 kts | 44° |
| 2026-05-04 20:55 | 53.36370 | -2.27727 | 259 ft | 3 kts | 40° |
| 2026-05-04 20:56 | 53.36355 | -2.27743 | 259 ft | 3 kts | 0° |
| 2026-05-04 20:56 | 53.36341 | -2.27736 | 259 ft | 3 kts | 301° |
| 2026-05-04 20:56 | 53.36336 | -2.27716 | 259 ft | 0 kts | 284° |
| 2026-05-04 20:56 | 53.36338 | -2.27727 | 259 ft | 2 kts | 284° |
| 2026-05-04 20:57 | 53.36339 | -2.27735 | 259 ft | 1 kts | 284° |
| 2026-05-04 20:59 | 53.36339 | -2.27738 | 259 ft | 1 kts | 284° |
| 2026-05-04 20:59 | 53.36344 | -2.27768 | 259 ft | 5 kts | 285° |
| 2026-05-04 20:59 | 53.36369 | -2.27824 | 259 ft | 7 kts | 312° |
| 2026-05-04 21:00 | 53.36395 | -2.27889 | 259 ft | 4 kts | 271° |
| 2026-05-04 21:00 | 53.36365 | -2.27976 | 259 ft | 13 kts | 229° |
| 2026-05-04 21:00 | 53.36285 | -2.28064 | 259 ft | 15 kts | 196° |
| 2026-05-04 21:00 | 53.36183 | -2.28010 | 259 ft | 18 kts | 137° |
| 2026-05-04 21:01 | 53.36083 | -2.27878 | 259 ft | 19 kts | 141° |
| 2026-05-04 21:01 | 53.35978 | -2.27752 | 259 ft | 18 kts | 154° |
| 2026-05-04 21:01 | 53.35852 | -2.27733 | 258 ft | 19 kts | 185° |
| 2026-05-04 21:01 | 53.35739 | -2.27646 | 253 ft | 19 kts | 160° |
| 2026-05-04 21:02 | 53.35626 | -2.27523 | 249 ft | 15 kts | 126° |
| 2026-05-04 21:02 | 53.35638 | -2.27420 | 251 ft | 12 kts | 59° |
| 2026-05-04 21:02 | 53.35694 | -2.27303 | 259 ft | 15 kts | 52° |
| 2026-05-04 21:02 | 53.35766 | -2.27152 | 259 ft | 17 kts | 50° |
| 2026-05-04 21:03 | 53.35832 | -2.26996 | 259 ft | 15 kts | 60° |
| 2026-05-04 21:03 | 53.35893 | -2.26853 | 259 ft | 16 kts | 52° |
| 2026-05-04 21:03 | 53.35952 | -2.26710 | 260 ft | 15 kts | 51° |
| 2026-05-04 21:03 | 53.36024 | -2.26560 | 259 ft | 18 kts | 51° |
| 2026-05-04 21:04 | 53.36107 | -2.26388 | 259 ft | 19 kts | 51° |
| 2026-05-04 21:04 | 53.36195 | -2.26244 | 259 ft | 17 kts | 40° |
| 2026-05-04 21:04 | 53.36264 | -2.26090 | 259 ft | 16 kts | 75° |
| 2026-05-04 21:04 | 53.36283 | -2.25924 | 259 ft | 9 kts | 73° |
| 2026-05-04 21:05 | 53.36284 | -2.25911 | 259 ft | 0 kts | 81° |
| 2026-05-04 21:05 | 53.36284 | -2.25909 | 259 ft | 2 kts | 81° |
| 2026-05-04 21:06 | 53.36285 | -2.25838 | 260 ft | 10 kts | 101° |
| 2026-05-04 21:06 | 53.36242 | -2.25758 | 264 ft | 9 kts | 159° |
| 2026-05-04 21:06 | 53.36178 | -2.25829 | 262 ft | 20 kts | 231° |
| 2026-05-04 21:06 | 53.35989 | -2.26226 | 265 ft | 73 kts | 231° |
| 2026-05-04 21:07 | 53.35549 | -2.27137 | 256 ft | 129 kts | 231° |
| 2026-05-04 21:07 | 53.34888 | -2.28504 | 465 ft | 160 kts | 233° |
| 2026-05-04 21:07 | 53.34190 | -2.29995 | 1180 ft | 164 kts | 235° |
| 2026-05-04 21:07 | 53.33494 | -2.31486 | 1986 ft | 163 kts | 234° |
| 2026-05-04 21:08 | 53.32781 | -2.33036 | 2514 ft | 178 kts | 240° |
| 2026-05-04 21:08 | 53.32395 | -2.35125 | 2817 ft | 202 kts | 270° |
| 2026-05-04 21:08 | 53.32506 | -2.37603 | 3124 ft | 226 kts | 278° |
| 2026-05-04 21:08 | 53.32738 | -2.40327 | 3453 ft | 246 kts | 276° |
| 2026-05-04 21:09 | 53.32598 | -2.43242 | 4089 ft | 256 kts | 258° |
| 2026-05-04 21:09 | 53.32128 | -2.46127 | 4948 ft | 258 kts | 254° |
| 2026-05-04 21:09 | 53.31594 | -2.49009 | 5818 ft | 261 kts | 253° |
| 2026-05-04 21:09 | 53.31048 | -2.51925 | 6726 ft | 263 kts | 253° |
| 2026-05-04 21:10 | 53.30502 | -2.54866 | 7566 ft | 266 kts | 253° |
| 2026-05-04 21:10 | 53.29916 | -2.57818 | 8436 ft | 270 kts | 250° |
| 2026-05-04 21:10 | 53.29184 | -2.60723 | 9304 ft | 273 kts | 246° |
| 2026-05-04 21:10 | 53.28321 | -2.63584 | 10106 ft | 278 kts | 238° |
| 2026-05-04 21:11 | 53.26994 | -2.66042 | 10537 ft | 297 kts | 218° |
| 2026-05-04 21:11 | 53.25101 | -2.67716 | 10802 ft | 321 kts | 199° |
| 2026-05-04 21:11 | 53.22889 | -2.68508 | 11254 ft | 335 kts | 189° |
| 2026-05-04 21:11 | 53.20553 | -2.68925 | 11931 ft | 341 kts | 186° |
| 2026-05-04 21:12 | 53.18169 | -2.69165 | 12700 ft | 344 kts | 184° |
| 2026-05-04 21:12 | 53.15760 | -2.69336 | 13482 ft | 347 kts | 183° |
| 2026-05-04 21:12 | 53.13333 | -2.69511 | 14204 ft | 350 kts | 184° |
| 2026-05-04 21:12 | 53.10883 | -2.69725 | 14869 ft | 354 kts | 184° |
| 2026-05-04 21:13 | 53.08407 | -2.69976 | 15524 ft | 357 kts | 185° |
| 2026-05-04 21:13 | 53.06146 | -2.70227 | 16123 ft | 360 kts | 185° |
| 2026-05-04 21:13 | 53.03669 | -2.70517 | 16768 ft | 364 kts | 185° |
| 2026-05-04 21:13 | 53.01135 | -2.70820 | 17427 ft | 367 kts | 185° |
| 2026-05-04 21:14 | 52.98571 | -2.71127 | 18081 ft | 370 kts | 185° |
| 2026-05-04 21:14 | 52.95987 | -2.71436 | 18696 ft | 373 kts | 185° |
| 2026-05-04 21:14 | 52.93391 | -2.71738 | 19300 ft | 374 kts | 185° |
| 2026-05-04 21:14 | 52.90778 | -2.72046 | 19867 ft | 377 kts | 185° |
| 2026-05-04 21:15 | 52.88024 | -2.72375 | 20429 ft | 380 kts | 185° |